Time;durP1;ratioP1;P1;durP2;ratioP2;P2;SDS_P1;SDS_P2;PMS_P1;PMS_P2;Temp;Humidity;BMP_temperature;BMP_pressure;BME280_temperature;BME280_humidity;BME280_pressure;Samples;Min_cycle;Max_cycle;Signal;HPM_P1;HPM_P2
2022/01/22 00:15:35;;;;;;;1.20;1.00;;;;;;;;;;6368628;22;20022;-94
2022/01/22 00:20:56;;;;;;;4.03;1.65;;;;;;;;;;6363282;22;20393;-95
2022/01/22 00:46:22;;;;;;;7.82;1.52;;;;;;;;;;6352823;22;20368;-95
2022/01/22 00:57:04;;;;;;;1.95;0.98;;;;;;;;;;6365806;22;20034;-93
2022/01/22 01:02:17;;;;;;;1.23;1.05;;;;;;;;;;6363157;22;20026;-94
2022/01/22 02:56:36;;;;;;;1.65;1.17;;;;;;;;;;6323347;22;20022;-92
2022/01/22 05:01:40;;;;;;;6.95;1.75;;;;;;;;;;6361727;22;20041;-94
2022/01/22 05:15:28;;;;;;;7.30;2.35;;;;;;;;;;6382137;22;20026;-95
2022/01/22 05:51:01;;;;;;;4.75;1.92;;;;;;;;;;6364016;22;20030;-95
2022/01/22 06:01:57;;;;;;;5.90;1.83;;;;;;;;;;6362238;22;20026;-96
2022/01/22 06:20:55;;;;;;;10.73;2.65;;;;;;;;;;6364987;22;20025;-95
2022/01/22 06:32:11;;;;;;;3.13;1.92;;;;;;;;;;6365510;22;20023;-94
2022/01/22 06:46:21;;;;;;;3.63;2.40;;;;;;;;;;6364948;22;20027;-96
2022/01/22 06:55:02;;;;;;;14.20;3.13;;;;;;;;;;6362986;22;20101;-94
2022/01/22 07:00:17;;;;;;;15.82;7.40;;;;;;;;;;6369245;22;20051;-95
2022/01/22 07:08:21;;;;;;;6.10;2.88;;;;;;;;;;6368660;22;20036;-94
2022/01/22 07:10:51;;;;;;;27.27;9.45;;;;;;;;;;6341630;22;20017;-93
2022/01/22 07:16:02;;;;;;;17.60;6.03;;;;;;;;;;6366252;22;20094;-94
2022/01/22 07:18:29;;;;;;;6.83;3.00;;;;;;;;;;6369422;22;20010;-94
2022/01/22 07:20:56;;;;;;;8.60;3.55;;;;;;;;;;6370002;22;20071;-94
2022/01/22 07:26:14;;;;;;;6.70;4.75;;;;;;;;;;6367248;22;20058;-93
2022/01/22 07:28:49;;;;;;;11.93;6.20;;;;;;;;;;6365851;22;20037;-94
2022/01/22 07:31:35;;;;;;;10.45;5.13;;;;;;;;;;6367015;22;20428;-96
2022/01/22 07:42:50;;;;;;;6.30;2.17;;;;;;;;;;6366047;22;20028;-94
2022/01/22 07:45:21;;;;;;;2.60;2.15;;;;;;;;;;6338193;22;20467;-94
2022/01/22 07:47:50;;;;;;;9.30;3.75;;;;;;;;;;6340334;22;20100;-93
2022/01/22 07:59:02;;;;;;;5.10;2.83;;;;;;;;;;6368263;22;19924;-96
2022/01/22 08:01:31;;;;;;;5.05;2.50;;;;;;;;;;6367064;22;20448;-96
2022/01/22 08:04:02;;;;;;;5.15;3.30;;;;;;;;;;6366287;22;20002;-94
2022/01/22 08:06:31;;;;;;;4.47;3.45;;;;;;;;;;6338658;22;20432;-94
2022/01/22 08:08:59;;;;;;;5.85;3.40;;;;;;;;;;6314045;22;20011;-94
2022/01/22 08:11:27;;;;;;;5.15;2.97;;;;;;;;;;6339123;22;20092;-95
2022/01/22 08:16:57;;;;;;;5.90;2.60;;;;;;;;;;6367665;22;20033;-94
2022/01/22 08:19:28;;;;;;;4.32;2.13;;;;;;;;;;6368558;22;20002;-93
2022/01/22 08:21:55;;;;;;;3.58;2.80;;;;;;;;;;6337421;22;20082;-93
2022/01/22 08:24:25;;;;;;;8.85;3.95;;;;;;;;;;6365535;22;20398;-94
2022/01/22 08:27:20;;;;;;;4.53;2.72;;;;;;;;;;6367616;22;20006;-93
2022/01/22 08:29:41;;;;;;;3.97;2.97;;;;;;;;;;6367278;22;20003;-92
2022/01/22 08:37:39;;;;;;;7.05;4.32;;;;;;;;;;6367729;22;20395;-94
2022/01/22 08:40:07;;;;;;;8.15;5.47;;;;;;;;;;6367730;22;19998;-93
2022/01/22 08:42:35;;;;;;;11.27;3.33;;;;;;;;;;6365624;22;20337;-93
2022/01/22 08:45:03;;;;;;;4.13;2.63;;;;;;;;;;6365820;22;20025;-94
2022/01/22 08:47:28;;;;;;;;;;;3.80;90.70;;;;;;6341094;22;20041;-94
2022/01/22 08:49:54;;;;;;;5.30;3.10;;;;;;;;;;6341007;22;19932;-93
2022/01/22 08:52:24;;;;;;;7.07;3.25;;;;;;;;;;6364557;22;19998;-94
2022/01/22 08:54:50;;;;;;;7.63;3.05;;;;;;;;;;6365483;22;20010;-94
2022/01/22 08:57:18;;;;;;;4.78;3.10;;;;;;;;;;6367067;22;20022;-93
2022/01/22 08:59:44;;;;;;;9.00;4.65;;;;;;;;;;6367572;22;20006;-93
2022/01/22 09:02:10;;;;;;;5.63;3.00;;;;;;;;;;6364116;22;20003;-93
2022/01/22 09:04:36;;;;;;;9.45;4.53;;;;;;;;;;6337587;22;20013;-93
2022/01/22 09:07:02;;;;;;;16.33;3.83;;;;;;;;;;6339141;22;20006;-93
2022/01/22 09:09:28;;;;;;;7.05;3.70;;;;;;;;;;6367812;22;20002;-93
2022/01/22 09:11:55;;;;;;;4.70;2.85;;;;;;;;;;6365889;22;20440;-93
2022/01/22 09:14:21;;;;;;;4.37;2.33;;;;;;;;;;6366877;22;20003;-92
2022/01/22 09:16:50;;;;;;;7.35;3.53;;;;;;;;;;6367109;22;20017;-92
2022/01/22 09:19:17;;;;;;;6.07;3.03;;;;;;;;;;6369234;22;20009;-94
2022/01/22 09:21:45;;;;;;;7.20;3.63;;;;;;;;;;6364837;22;20006;-94
2022/01/22 09:24:12;;;;;;;6.80;3.08;;;;;;;;;;6340189;22;19998;-94
2022/01/22 09:26:38;;;;;;;6.35;3.42;;;;;;;;;;6365094;22;20090;-94
2022/01/22 09:29:05;;;;;;;9.52;3.42;;;;;;;;;;6368270;22;19995;-95
2022/01/22 09:31:31;;;;;;;7.47;3.65;;;;;;;;;;6339276;22;20444;-96
2022/01/22 09:33:59;;;;;;;6.82;3.50;;;;;;;;;;6339221;22;20070;-94
2022/01/22 09:36:25;;;;;;;7.25;3.63;;;;;;;;;;6337213;22;20010;-93
2022/01/22 09:38:52;;;;;;;14.75;3.78;;;;;;;;;;6368639;22;20647;-96
2022/01/22 09:41:19;;;;;;;9.55;3.92;;;;;;;;;;6367962;22;20747;-94
2022/01/22 09:43:45;;;;;;;4.20;2.90;;;;;;;;;;6337887;22;20006;-93
2022/01/22 09:46:11;;;;;;;8.95;4.63;;;;;;;;;;6337873;22;20006;-95
2022/01/22 09:48:45;;;;;;;5.93;2.67;;;;;;;;;;6340005;22;20003;-95
2022/01/22 09:51:11;;;;;;;6.63;4.00;;;;;;;;;;6369228;22;20066;-94
2022/01/22 09:53:37;;;;;;;4.70;2.85;;;;;;;;;;6366049;22;20006;-94
2022/01/22 09:56:04;;;;;;;13.45;3.00;;;;;;;;;;6337296;22;20326;-94
2022/01/22 09:58:30;;;;;;;6.15;2.80;;;;;;;;;;6368008;22;20042;-94
2022/01/22 10:01:16;;;;;;;6.03;1.75;;;;;;;;;;6367292;22;20006;-95
2022/01/22 10:03:42;;;;;;;2.95;2.47;;;;;;;;;;6337215;22;20059;-93
2022/01/22 10:06:18;;;;;;;6.38;3.17;;;;;;;;;;6337318;22;20002;-94
2022/01/22 10:08:44;;;;;;;5.90;2.28;;;;;;;;;;6368622;22;19998;-94
2022/01/22 10:11:20;;;;;;;2.85;2.08;;;;;;;;;;6368089;22;20043;-94
2022/01/22 10:13:47;;;;;;;1.60;1.50;;;;;;;;;;6365655;22;20002;-93
2022/01/22 10:16:24;;;;;;;3.63;2.13;;;;;;;;;;6337902;22;20010;-93
2022/01/22 10:19:10;;;;;;;2.30;1.80;;;;;;;;;;6339567;22;19998;-94
2022/01/22 10:21:37;;;;;;;4.50;2.37;;;;;;;;;;6364193;22;20010;-94
2022/01/22 10:24:26;;;;;;;3.38;1.95;;;;;;;;;;6338310;22;20002;-94
2022/01/22 10:27:10;;;;;;;12.82;2.40;;;;;;;;;;6365406;22;20289;-93
2022/01/22 10:29:36;;;;;;;6.32;2.17;;;;;;;;;;6367182;22;20010;-93
2022/01/22 10:32:04;;;;;;;6.47;2.58;;;;;;;;;;6337081;22;20009;-94
2022/01/22 10:34:31;;;;;;;3.33;1.73;;;;;;;;;;6336758;22;20028;-94
2022/01/22 10:37:02;;;;;;;5.72;2.70;;;;;;;;;;6338457;22;20439;-92
2022/01/22 10:39:30;;;;;;;3.92;2.45;;;;;;;;;;6367061;22;20006;-93
2022/01/22 10:41:55;;;;;;;;;;;4.50;91.10;;;;;;6365199;22;20390;-93
2022/01/22 10:44:36;;;;;;;3.83;2.13;;;;;;;;;;6366639;22;19898;-94
2022/01/22 10:47:03;;;;;;;4.18;1.88;;;;;;;;;;6367652;22;20006;-92
2022/01/22 10:49:30;;;;;;;2.65;2.17;;;;;;;;;;6367344;22;20006;-94
2022/01/22 10:51:56;;;;;;;3.92;1.80;;;;;;;;;;6336632;22;20006;-94
2022/01/22 10:54:26;;;;;;;13.65;2.40;;;;;;;;;;6364887;22;20046;-94
2022/01/22 10:56:53;;;;;;;2.15;1.73;;;;;;;;;;6338428;22;20498;-93
2022/01/22 10:59:20;;;;;;;6.90;1.83;;;;;;;;;;6367748;22;20006;-92
2022/01/22 11:01:57;;;;;;;8.60;1.83;;;;;;;;;;6364812;22;20030;-93
2022/01/22 11:04:24;;;;;;;3.33;2.03;;;;;;;;;;6336984;22;20006;-93
2022/01/22 11:06:52;;;;;;;10.13;2.30;;;;;;;;;;6339732;22;20433;-93
2022/01/22 11:09:17;;;;;;;;;;;5.10;88.40;;;;;;6339488;22;20075;-94
2022/01/22 11:11:43;;;;;;;3.08;1.80;;;;;;;;;;6336020;22;19906;-92
2022/01/22 11:14:11;;;;;;;4.00;2.40;;;;;;;;;;6366234;22;20003;-93
2022/01/22 11:16:38;;;;;;;7.45;3.53;;;;;;;;;;6364517;22;20013;-94
2022/01/22 11:19:04;;;;;;;4.15;3.38;;;;;;;;;;6366622;22;19999;-93
2022/01/22 11:21:31;;;;;;;7.10;2.30;;;;;;;;;;6338286;22;20002;-94
2022/01/22 11:23:58;;;;;;;5.95;2.47;;;;;;;;;;6336801;22;20010;-93
2022/01/22 11:26:24;;;;;;;9.73;2.63;;;;;;;;;;6336085;22;20047;-94
2022/01/22 11:28:52;;;;;;;4.68;1.90;;;;;;;;;;6338263;22;20195;-94
2022/01/22 11:31:18;;;;;;;7.40;3.33;;;;;;;;;;6339774;22;20017;-93
2022/01/22 11:33:46;;;;;;;13.18;2.92;;;;;;;;;;6363932;22;20044;-93
2022/01/22 11:36:25;;;;;;;6.50;2.90;;;;;;;;;;6335905;22;20093;-93
2022/01/22 11:38:58;;;;;;;7.93;4.30;;;;;;;;;;6366430;22;20010;-94
2022/01/22 11:41:25;;;;;;;11.27;4.75;;;;;;;;;;6365344;22;20003;-94
2022/01/22 11:44:02;;;;;;;16.63;6.05;;;;;;;;;;6364801;22;20437;-94
2022/01/22 11:46:33;;;;;;;8.45;3.85;;;;;;;;;;6364518;22;20486;-94
2022/01/22 11:49:34;;;;;;;6.55;3.83;;;;;;;;;;6367006;22;20006;-95
2022/01/22 11:52:09;;;;;;;4.78;2.72;;;;;;;;;;6206470;23;20015;-95
2022/01/22 11:54:56;;;;;;;14.80;5.13;;;;;;;;;;6206931;23;20084;-93
2022/01/22 11:57:22;;;;;;;5.83;4.13;;;;;;;;;;6208896;23;20124;-95
2022/01/22 11:59:50;;;;;;;3.50;2.38;;;;;;;;;;6210168;23;20012;-93
2022/01/22 12:02:16;;;;;;;;;;;5.30;88.00;;;;;;6207078;23;20025;-94
2022/01/22 12:04:42;;;;;;;5.90;2.72;;;;;;;;;;6181128;23;20309;-93
2022/01/22 12:07:08;;;;;;;10.15;4.00;;;;;;;;;;6208595;23;20009;-92
2022/01/22 12:09:54;;;;;;;6.25;4.22;;;;;;;;;;6208869;23;20021;-93
2022/01/22 12:15:09;;;;;;;5.07;3.22;;;;;;;;;;6206791;23;20019;-93
2022/01/22 12:17:51;;;;;;;8.20;3.88;;;;;;;;;;6208446;23;20004;-93
2022/01/22 12:20:43;;;;;;;6.28;3.38;;;;;;;;;;6209260;23;20008;-93
2022/01/22 12:23:10;;;;;;;16.92;6.45;;;;;;;;;;6206292;23;20011;-93
2022/01/22 12:25:36;;;;;;;13.43;5.15;;;;;;;;;;6259418;22;20010;-94
2022/01/22 12:28:03;;;;;;;16.98;5.68;;;;;;;;;;6365349;22;20051;-93
2022/01/22 12:30:40;;;;;;;9.27;4.13;;;;;;;;;;6366714;22;20014;-94
2022/01/22 12:33:09;;;;;;;7.65;4.22;;;;;;;;;;6364038;22;20002;-95
2022/01/22 12:35:38;;;;;;;9.70;4.50;;;;;;;;;;6363294;22;20006;-94
2022/01/22 12:38:27;;;;;;;10.57;5.30;;;;;;;;;;6338715;22;20034;-94
2022/01/22 12:41:01;;;;;;;10.00;4.32;;;;;;;;;;6366948;22;20002;-93
2022/01/22 12:43:31;;;;;;;9.63;4.82;;;;;;;;;;6363438;22;20002;-93
2022/01/22 12:45:59;;;;;;;11.07;4.90;;;;;;;;;;6363494;22;20410;-94
2022/01/22 12:48:28;;;;;;;11.10;4.97;;;;;;;;;;6366760;22;20003;-94
2022/01/22 12:50:59;;;;;;;9.05;3.92;;;;;;;;;;6338716;22;20483;-93
2022/01/22 12:53:25;;;;;;;8.77;4.47;;;;;;;;;;6363790;22;20513;-93
2022/01/22 12:58:24;;;;;;;9.30;4.15;;;;;;;;;;6366498;22;20048;-92
2022/01/22 13:00:52;;;;;;;7.22;3.83;;;;;;;;;;6339305;22;20005;-92
2022/01/22 13:03:38;;;;;;;8.20;4.82;;;;;;;;;;6366143;22;19998;-93
2022/01/22 13:06:04;;;;;;;10.93;3.73;;;;;;;;;;6337509;22;20003;-93
2022/01/22 13:08:31;;;;;;;10.13;3.35;;;;;;;;;;6340409;22;19994;-93
2022/01/22 13:10:59;;;;;;;7.93;4.27;;;;;;;;;;6340525;22;20010;-93
2022/01/22 13:13:25;;;;;;;7.75;4.07;;;;;;;;;;6366474;22;20225;-92
2022/01/22 13:16:12;;;;;;;16.73;5.18;;;;;;;;;;6365343;22;20002;-93
2022/01/22 13:18:41;;;;;;;7.50;3.83;;;;;;;;;;6367671;22;20060;-95
2022/01/22 13:21:08;;;;;;;11.85;5.55;;;;;;;;;;6368598;22;20230;-93
2022/01/22 13:23:34;;;;;;;11.45;3.50;;;;;;;;;;6338735;22;20012;-92
2022/01/22 13:26:00;;;;;;;12.67;3.70;;;;;;;;;;6337493;22;20700;-94
2022/01/22 13:28:32;;;;;;;12.90;5.00;;;;;;;;;;6341123;22;20274;-92
2022/01/22 13:31:04;;;;;;;8.75;4.82;;;;;;;;;;6340035;22;20014;-93
2022/01/22 13:33:54;;;;;;;7.82;4.35;;;;;;;;;;6366097;22;20026;-94
2022/01/22 13:36:51;;;;;;;8.00;3.75;;;;;;;;;;6364181;22;20034;-93
2022/01/22 13:39:39;;;;;;;13.73;5.13;;;;;;;;;;6368650;22;20081;-93
2022/01/22 13:45:19;;;;;;;15.40;4.78;;;;;;;;;;6365891;22;20020;-95
2022/01/22 13:47:52;;;;;;;6.68;3.53;;;;;;;;;;6368111;22;20002;-94
2022/01/22 13:50:21;;;;;;;13.77;4.32;;;;;;;;;;6340385;22;20037;-93
2022/01/22 13:52:47;;;;;;;8.35;4.55;;;;;;;;;;6364168;22;20006;-92
2022/01/22 13:55:14;;;;;;;7.25;3.83;;;;;;;;;;6337876;22;20018;-94
2022/01/22 13:57:43;;;;;;;44.90;12.32;;;;;;;;;;6367531;22;20007;-93
2022/01/22 14:00:13;;;;;;;27.48;8.55;;;;;;;;;;6369331;22;20002;-94
2022/01/22 14:05:16;;;;;;;14.50;6.30;;;;;;;;;;6366232;22;20017;-93
2022/01/22 14:07:46;;;;;;;43.92;11.20;;;;;;;;;;6339378;22;20110;-93
2022/01/22 14:10:12;;;;;;;16.83;7.30;;;;;;;;;;6368617;22;20090;-94
2022/01/22 14:12:44;;;;;;;25.10;7.88;;;;;;;;;;6365082;22;20037;-94
2022/01/22 14:15:16;;;;;;;16.05;7.65;;;;;;;;;;6365520;22;20013;-94
2022/01/22 14:18:06;;;;;;;15.23;7.05;;;;;;;;;;6367367;22;20010;-93
2022/01/22 14:20:32;;;;;;;17.70;5.97;;;;;;;;;;6341195;22;20510;-94
2022/01/22 14:23:04;;;;;;;21.40;7.57;;;;;;;;;;6336534;22;20003;-94
2022/01/22 14:25:31;;;;;;;11.40;5.82;;;;;;;;;;6365803;22;20295;-93
2022/01/22 14:28:03;;;;;;;17.13;6.13;;;;;;;;;;6339117;22;20695;-94
2022/01/22 14:30:33;;;;;;;16.30;6.82;;;;;;;;;;6368873;22;20025;-93
2022/01/22 14:32:59;;;;;;;9.45;6.22;;;;;;;;;;6336835;22;20006;-93
2022/01/22 14:35:25;;;;;;;12.93;5.40;;;;;;;;;;6338563;22;20006;-94
2022/01/22 14:37:54;;;;;;;17.52;5.32;;;;;;;;;;6339568;22;20047;-93
2022/01/22 14:45:57;;;;;;;20.38;8.38;;;;;;;;;;6365311;22;20017;-94
2022/01/22 14:48:24;;;;;;;11.88;6.45;;;;;;;;;;6366655;22;19998;-94
2022/01/22 14:50:50;;;;;;;13.48;5.85;;;;;;;;;;6366455;22;20066;-93
2022/01/22 14:53:16;;;;;;;8.55;4.45;;;;;;;;;;6335359;22;20030;-95
2022/01/22 14:55:54;;;;;;;15.07;5.30;;;;;;;;;;6363197;22;20007;-94
2022/01/22 14:58:19;;;;;;;;;;;;;;;;;;6367511;22;20078;-94
2022/01/22 15:00:45;;;;;;;13.55;4.97;;;;;;;;;;6365156;22;20408;-94
2022/01/22 15:03:12;;;;;;;10.27;5.13;;;;;;;;;;6363432;22;20010;-94
2022/01/22 15:05:38;;;;;;;10.10;4.75;;;;;;;;;;6334268;22;19994;-94
2022/01/22 15:08:04;;;;;;;13.35;5.43;;;;;;;;;;6363654;22;20017;-91
2022/01/22 15:10:30;;;;;;;10.48;5.25;;;;;;;;;;6338402;22;20089;-92
2022/01/22 15:12:56;;;;;;;8.45;4.25;;;;;;;;;;6363843;22;20531;-91
2022/01/22 15:15:25;;;;;;;11.15;3.78;;;;;;;;;;6364073;22;20038;-93
2022/01/22 15:17:54;;;;;;;12.45;5.03;;;;;;;;;;6367486;22;19994;-92
2022/01/22 15:20:23;;;;;;;8.27;4.90;;;;;;;;;;6367944;22;20009;-92
2022/01/22 15:22:49;;;;;;;9.05;4.72;;;;;;;;;;6363957;22;20002;-93
2022/01/22 15:25:15;;;;;;;15.95;5.50;;;;;;;;;;6336300;22;20511;-92
2022/01/22 15:27:41;;;;;;;10.68;5.28;;;;;;;;;;6339261;22;20029;-92
2022/01/22 15:30:12;;;;;;;14.00;4.90;;;;;;;;;;6338926;22;20010;-92
2022/01/22 15:32:45;;;;;;;20.23;7.85;;;;;;;;;;6336373;22;20006;-92
2022/01/22 15:35:13;;;;;;;20.15;5.30;;;;;;;;;;6365027;22;20845;-92
2022/01/22 15:37:44;;;;;;;16.08;5.13;;;;;;;;;;6366668;22;20012;-92
2022/01/22 15:40:10;;;;;;;14.70;6.15;;;;;;;;;;6366788;22;20079;-91
2022/01/22 15:42:36;;;;;;;18.38;5.32;;;;;;;;;;6364300;22;20002;-92
2022/01/22 15:45:02;;;;;;;11.30;5.40;;;;;;;;;;6335271;22;20006;-92
2022/01/22 15:47:28;;;;;;;14.07;5.30;;;;;;;;;;6367607;22;20022;-95
2022/01/22 15:49:57;;;;;;;14.25;5.22;;;;;;;;;;6366775;22;20018;-94
2022/01/22 15:52:24;;;;;;;15.55;6.15;;;;;;;;;;6336680;22;19999;-94
2022/01/22 15:54:50;;;;;;;11.95;5.80;;;;;;;;;;6335935;22;20058;-94
2022/01/22 15:57:16;;;;;;;10.23;5.13;;;;;;;;;;6365588;22;20722;-94
2022/01/22 15:59:42;;;;;;;11.18;5.35;;;;;;;;;;6367075;22;20341;-93
2022/01/22 16:02:08;;;;;;;21.95;6.55;;;;;;;;;;6336484;22;20010;-94
2022/01/22 16:04:35;;;;;;;15.32;5.72;;;;;;;;;;6367205;22;20002;-94
2022/01/22 16:07:07;;;;;;;18.80;6.28;;;;;;;;;;6363403;22;20005;-93
2022/01/22 16:09:33;;;;;;;7.60;3.72;;;;;;;;;;6369023;22;20349;-96
2022/01/22 16:12:00;;;;;;;9.07;3.10;;;;;;;;;;6364297;22;20089;-95
2022/01/22 16:14:26;;;;;;;6.07;4.27;;;;;;;;;;6367036;22;20071;-94
2022/01/22 16:16:52;;;;;;;13.40;7.45;;;;;;;;;;6335673;22;20021;-95
2022/01/22 16:19:19;;;;;;;9.52;4.38;;;;;;;;;;6339229;22;20017;-95
2022/01/22 16:21:45;;;;;;;8.95;4.47;;;;;;;;;;6335009;22;20392;-92
2022/01/22 16:24:12;;;;;;;8.75;5.25;;;;;;;;;;6339380;22;19998;-93
2022/01/22 16:26:38;;;;;;;6.53;3.67;;;;;;;;;;6335890;22;20441;-95
2022/01/22 16:29:05;;;;;;;9.73;3.95;;;;;;;;;;6339481;22;19998;-94
2022/01/22 16:31:31;;;;;;;7.50;3.80;;;;;;;;;;6336586;22;20058;-95
2022/01/22 16:34:00;;;;;;;9.13;4.40;;;;;;;;;;6364466;22;19999;-95
2022/01/22 16:36:27;;;;;;;5.25;2.67;;;;;;;;;;6363890;22;20378;-94
2022/01/22 16:38:53;;;;;;;10.95;3.83;;;;;;;;;;6339298;22;20081;-95
2022/01/22 16:41:19;;;;;;;9.35;4.55;;;;;;;;;;6365158;22;20025;-94
2022/01/22 16:43:50;;;;;;;7.22;4.13;;;;;;;;;;6363523;22;20077;-95
2022/01/22 16:46:35;;;;;;;7.25;3.58;;;;;;;;;;6363931;22;20010;-94
2022/01/22 16:57:08;;;;;;;18.77;4.50;;;;;;;;;;6363553;22;20014;-95
2022/01/22 16:59:35;;;;;;;16.88;6.95;;;;;;;;;;6339153;22;20440;-94
2022/01/22 17:02:04;;;;;;;17.98;6.93;;;;;;;;;;6362712;22;20471;-94
2022/01/22 17:04:39;;;;;;;9.02;3.97;;;;;;;;;;6367425;22;20006;-93
2022/01/22 17:07:06;;;;;;;6.10;4.70;;;;;;;;;;6362943;22;20375;-93
2022/01/22 17:14:47;;;;;;;8.70;3.80;;;;;;;;;;6365860;22;20712;-96
2022/01/22 17:17:15;;;;;;;5.47;3.72;;;;;;;;;;6336499;22;20006;-94
2022/01/22 17:19:40;;;;;;;;;;;4.30;92.40;;;;;;6339331;22;20004;-93
2022/01/22 17:22:07;;;;;;;10.98;4.38;;;;;;;;;;6335319;22;19902;-94
2022/01/22 17:24:33;;;;;;;8.35;3.95;;;;;;;;;;6338600;22;20006;-95
2022/01/22 17:27:00;;;;;;;11.95;4.38;;;;;;;;;;6336145;22;20021;-93
2022/01/22 17:29:26;;;;;;;14.33;5.60;;;;;;;;;;6366902;22;20059;-94
2022/01/22 17:31:52;;;;;;;10.20;5.17;;;;;;;;;;6336528;22;20059;-95
2022/01/22 17:34:19;;;;;;;10.15;4.07;;;;;;;;;;6366240;22;20033;-94
2022/01/22 17:36:45;;;;;;;5.88;3.80;;;;;;;;;;6335442;22;20022;-94
2022/01/22 17:39:17;;;;;;;9.95;4.45;;;;;;;;;;6365925;22;20341;-93
2022/01/22 17:41:46;;;;;;;10.32;4.13;;;;;;;;;;6336700;22;20013;-94
2022/01/22 17:44:12;;;;;;;7.60;4.03;;;;;;;;;;6338100;22;20025;-94
2022/01/22 17:46:39;;;;;;;9.63;3.78;;;;;;;;;;6336978;22;20010;-95
2022/01/22 17:49:05;;;;;;;6.40;4.22;;;;;;;;;;6367800;22;20366;-93
2022/01/22 17:51:32;;;;;;;17.50;3.95;;;;;;;;;;6367267;22;20038;-94
2022/01/22 17:53:58;;;;;;;9.00;4.18;;;;;;;;;;6365809;22;20005;-94
2022/01/22 17:56:24;;;;;;;7.15;3.90;;;;;;;;;;6338092;22;20018;-93
2022/01/22 17:58:50;;;;;;;6.82;4.60;;;;;;;;;;6367538;22;20006;-94
2022/01/22 18:01:17;;;;;;;10.45;5.32;;;;;;;;;;6368896;22;20078;-93
2022/01/22 18:03:52;;;;;;;10.15;5.32;;;;;;;;;;6337313;22;20345;-92
2022/01/22 18:06:19;;;;;;;12.45;4.15;;;;;;;;;;6337683;22;20637;-93
2022/01/22 18:08:46;;;;;;;8.10;3.97;;;;;;;;;;6367186;22;20018;-94
2022/01/22 18:11:14;;;;;;;7.70;3.30;;;;;;;;;;6369143;22;20028;-92
2022/01/22 18:13:40;;;;;;;12.07;3.75;;;;;;;;;;6365107;22;19998;-94
2022/01/22 18:16:07;;;;;;;14.32;2.97;;;;;;;;;;6365665;22;20470;-93
2022/01/22 18:18:33;;;;;;;6.97;3.53;;;;;;;;;;6340152;22;19998;-93
2022/01/22 18:21:00;;;;;;;12.18;5.05;;;;;;;;;;6367731;22;20017;-92
2022/01/22 18:23:26;;;;;;;8.18;3.70;;;;;;;;;;6365309;22;20107;-93
2022/01/22 18:25:53;;;;;;;11.55;4.75;;;;;;;;;;6364681;22;19998;-93
2022/01/22 18:28:20;;;;;;;9.05;4.32;;;;;;;;;;6368011;22;20074;-93
2022/01/22 18:30:46;;;;;;;;;;;;;;;;;;6367668;22;20113;-94
2022/01/22 18:33:14;;;;;;;6.45;4.85;;;;;;;;;;6337630;22;20333;-93
2022/01/22 18:35:40;;;;;;;10.25;4.18;;;;;;;;;;6364466;22;20018;-93
2022/01/22 18:38:06;;;;;;;8.35;4.05;;;;;;;;;;6340281;22;20033;-93
2022/01/22 18:40:34;;;;;;;8.57;4.53;;;;;;;;;;6367607;22;20002;-93
2022/01/22 18:43:00;;;;;;;9.98;4.20;;;;;;;;;;6337283;22;20084;-94
2022/01/22 18:45:30;;;;;;;5.28;4.13;;;;;;;;;;6364305;22;20069;-92
2022/01/22 18:47:56;;;;;;;13.95;4.38;;;;;;;;;;6368623;22;20010;-94
2022/01/22 18:50:23;;;;;;;11.70;3.42;;;;;;;;;;6367611;22;20015;-92
2022/01/22 18:52:49;;;;;;;9.38;4.07;;;;;;;;;;6364747;22;20009;-93
2022/01/22 18:55:16;;;;;;;12.02;4.80;;;;;;;;;;6364537;22;20326;-94
2022/01/22 18:57:42;;;;;;;12.90;3.95;;;;;;;;;;6367655;22;19998;-93
2022/01/22 19:00:10;;;;;;;5.72;3.28;;;;;;;;;;6367350;22;20006;-92
2022/01/22 19:02:36;;;;;;;11.75;4.25;;;;;;;;;;6365441;22;20002;-94
2022/01/22 19:05:02;;;;;;;9.23;4.13;;;;;;;;;;6337578;22;20033;-93
2022/01/22 19:07:31;;;;;;;12.93;6.28;;;;;;;;;;6364977;22;19998;-93
2022/01/22 19:09:57;;;;;;;14.73;6.18;;;;;;;;;;6366835;22;20018;-92
2022/01/22 19:12:24;;;;;;;16.42;5.13;;;;;;;;;;6365767;22;19995;-94
2022/01/22 19:14:51;;;;;;;9.88;4.55;;;;;;;;;;6367117;22;20033;-94
2022/01/22 19:17:17;;;;;;;7.15;4.00;;;;;;;;;;6336473;22;20024;-94
2022/01/22 19:19:44;;;;;;;15.10;4.32;;;;;;;;;;6368011;22;20382;-95
2022/01/22 19:22:40;;;;;;;6.00;4.28;;;;;;;;;;6335657;22;20365;-94
2022/01/22 19:30:21;;;;;;;9.32;5.50;;;;;;;;;;6367053;22;20022;-95
2022/01/22 19:32:47;;;;;;;9.05;4.93;;;;;;;;;;6337671;22;20009;-93
2022/01/22 19:35:13;;;;;;;13.48;5.28;;;;;;;;;;6365547;22;20029;-95
2022/01/22 19:37:40;;;;;;;10.35;4.57;;;;;;;;;;6337111;22;20002;-92
2022/01/22 19:40:08;;;;;;;9.93;4.30;;;;;;;;;;6339920;22;20089;-94
2022/01/22 19:42:38;;;;;;;6.05;4.25;;;;;;;;;;6364262;22;20010;-95
2022/01/22 19:45:06;;;;;;;13.27;5.18;;;;;;;;;;6366866;22;20050;-93
2022/01/22 19:47:32;;;;;;;13.18;6.30;;;;;;;;;;6337114;22;19998;-93
2022/01/22 19:49:58;;;;;;;18.33;5.15;;;;;;;;;;6337933;22;20067;-94
2022/01/22 19:52:25;;;;;;;11.00;4.05;;;;;;;;;;6335227;22;20030;-95
2022/01/22 19:54:51;;;;;;;9.23;4.95;;;;;;;;;;6366277;22;20027;-94
2022/01/22 19:57:17;;;;;;;6.88;4.85;;;;;;;;;;6333582;22;20013;-94
2022/01/22 19:59:43;;;;;;;11.82;4.80;;;;;;;;;;6338666;22;20457;-94
2022/01/22 20:02:09;;;;;;;12.25;4.40;;;;;;;;;;6363188;22;20006;-94
2022/01/22 20:04:40;;;;;;;10.05;5.30;;;;;;;;;;6339268;22;20067;-94
2022/01/22 20:07:06;;;;;;;14.38;5.03;;;;;;;;;;6362255;22;20010;-95
2022/01/22 20:09:32;;;;;;;10.52;4.28;;;;;;;;;;6367441;22;20437;-94
2022/01/22 20:11:58;;;;;;;7.63;3.65;;;;;;;;;;6364041;22;20013;-93
2022/01/22 20:14:25;;;;;;;10.07;5.22;;;;;;;;;;6367867;22;20428;-95
2022/01/22 20:16:52;;;;;;;8.30;4.53;;;;;;;;;;6363649;22;20010;-94
2022/01/22 20:19:18;;;;;;;11.30;4.70;;;;;;;;;;6367252;22;20002;-95
2022/01/22 20:21:44;;;;;;;22.25;6.20;;;;;;;;;;6336112;22;20006;-94
2022/01/22 20:24:15;;;;;;;8.65;4.57;;;;;;;;;;6367837;22;19998;-94
2022/01/22 20:26:43;;;;;;;15.32;7.60;;;;;;;;;;6362779;22;20015;-95
2022/01/22 20:29:09;;;;;;;11.15;6.72;;;;;;;;;;6366602;22;20005;-94
2022/01/22 20:31:37;;;;;;;10.07;4.82;;;;;;;;;;6365987;22;20352;-94
2022/01/22 20:34:03;;;;;;;14.32;4.68;;;;;;;;;;6365175;22;20003;-94
2022/01/22 20:36:30;;;;;;;11.70;3.97;;;;;;;;;;6363721;22;20014;-95
2022/01/22 20:38:56;;;;;;;6.65;3.72;;;;;;;;;;6365455;22;20434;-95
2022/01/22 20:41:27;;;;;;;8.80;3.38;;;;;;;;;;6367131;22;20002;-95
2022/01/22 20:43:59;;;;;;;10.70;4.28;;;;;;;;;;6336260;22;20003;-95
2022/01/22 20:46:29;;;;;;;9.55;4.28;;;;;;;;;;6364476;22;20073;-96
2022/01/22 20:48:55;;;;;;;8.13;4.40;;;;;;;;;;6338167;22;20006;-95
2022/01/22 20:51:21;;;;;;;10.35;5.10;;;;;;;;;;6366881;22;20018;-96
2022/01/22 20:53:47;;;;;;;19.50;7.05;;;;;;;;;;6336579;22;19998;-94
2022/01/22 20:56:15;;;;;;;11.43;5.05;;;;;;;;;;6336595;22;20357;-95
2022/01/22 20:58:41;;;;;;;;;;;;;;;;;;6366474;22;20005;-95
2022/01/22 21:01:14;;;;;;;19.90;5.90;;;;;;;;;;6339899;22;19898;-95
2022/01/22 21:03:40;;;;;;;7.35;4.07;;;;;;;;;;6335261;22;20002;-95
2022/01/22 21:06:06;;;;;;;11.02;4.53;;;;;;;;;;6363559;22;20003;-95
2022/01/22 21:08:32;;;;;;;9.60;4.35;;;;;;;;;;6365786;22;20013;-94
2022/01/22 21:11:02;;;;;;;12.38;5.10;;;;;;;;;;6367418;22;20045;-94
2022/01/22 21:13:28;;;;;;;12.50;3.97;;;;;;;;;;6336634;22;20013;-94
2022/01/22 21:15:54;;;;;;;8.80;3.60;;;;;;;;;;6336011;22;20029;-95
2022/01/22 21:18:21;;;;;;;5.53;3.47;;;;;;;;;;6338061;22;20002;-94
2022/01/22 21:20:47;;;;;;;6.38;3.33;;;;;;;;;;6367472;22;20002;-95
2022/01/22 21:23:24;;;;;;;12.20;5.72;;;;;;;;;;6339681;22;20030;-96
2022/01/22 21:25:52;;;;;;;9.77;5.75;;;;;;;;;;6366443;22;20030;-95
2022/01/22 21:28:19;;;;;;;9.57;4.35;;;;;;;;;;6368815;22;19999;-94
2022/01/22 21:30:45;;;;;;;12.25;5.32;;;;;;;;;;6362840;22;20398;-94
2022/01/22 21:33:18;;;;;;;11.75;4.45;;;;;;;;;;6339956;22;20010;-95
2022/01/22 21:35:44;;;;;;;12.55;4.53;;;;;;;;;;6366985;22;20013;-94
2022/01/22 21:38:27;;;;;;;16.95;5.13;;;;;;;;;;6369561;22;20053;-94
2022/01/22 21:40:53;;;;;;;11.02;5.38;;;;;;;;;;6369139;22;20425;-95
2022/01/22 21:43:19;;;;;;;9.15;4.18;;;;;;;;;;6339742;22;20001;-94
2022/01/22 21:45:46;;;;;;;7.05;4.38;;;;;;;;;;6366741;22;20011;-95
2022/01/22 21:48:12;;;;;;;11.30;3.97;;;;;;;;;;6342460;22;20123;-94
2022/01/22 21:50:39;;;;;;;7.32;4.80;;;;;;;;;;6369339;22;20022;-93
2022/01/22 21:53:12;;;;;;;14.18;5.80;;;;;;;;;;6367532;22;20052;-94
2022/01/22 21:55:38;;;;;;;9.43;5.18;;;;;;;;;;6339042;22;20030;-96
2022/01/22 21:58:04;;;;;;;10.32;3.72;;;;;;;;;;6340855;22;19999;-94
2022/01/22 22:00:30;;;;;;;8.82;4.80;;;;;;;;;;6341274;22;20049;-94
2022/01/22 22:02:58;;;;;;;11.13;5.20;;;;;;;;;;6367410;22;20063;-94
2022/01/22 22:05:31;;;;;;;8.10;3.38;;;;;;;;;;6368069;22;20341;-94
2022/01/22 22:08:01;;;;;;;6.35;3.85;;;;;;;;;;6340834;22;20006;-95
2022/01/22 22:10:27;;;;;;;9.82;4.72;;;;;;;;;;6340868;22;20015;-95
2022/01/22 22:12:53;;;;;;;8.98;4.63;;;;;;;;;;6366544;22;20002;-95
2022/01/22 22:15:19;;;;;;;13.85;5.38;;;;;;;;;;6368875;22;20449;-94
2022/01/22 22:17:45;;;;;;;13.07;4.75;;;;;;;;;;6339319;22;20003;-95
2022/01/22 22:20:14;;;;;;;17.05;3.97;;;;;;;;;;6341685;22;20452;-95
2022/01/22 22:22:40;;;;;;;8.68;4.30;;;;;;;;;;6339269;22;19990;-95
2022/01/22 22:25:08;;;;;;;11.32;4.50;;;;;;;;;;6341806;22;20010;-95